Alto, Texas
Current Conditions -  °F | °C
As of 4:55 AM on Thursday 27 Nov 2014 (Local Time) from KJSO Reporting Station
Clear Clear  
Wind Chill: 39°   Ceiling: Unl
Heat Index: 43°   Visibility: 10mi
Dew Point: 30°   Wind: 7mph
Humidity: 60%   Direction: 20°NNE
Pressure: 30.45"   Gusts: NA
Location:  31.65°N, 95.07°W
Report Text: KJSO 271055Z AUTO 02006KT 10SM CLR 06/M01 A3045 RMK AO2 T00631009
Loading
Personal Weather Stations






























Interactive Weather Map New forecast layout! Learn more

10-Day Weather Forecast

Advertisements
Track Severe Weather on mobile